Time;durP1;ratioP1;P1;durP2;ratioP2;P2;SDS_P1;SDS_P2;PMS_P1;PMS_P2;Temp;Humidity;BMP_temperature;BMP_pressure;BME280_temperature;BME280_humidity;BME280_pressure;Samples;Min_cycle;Max_cycle;Signal;HPM_P1;HPM_P2
2023/07/19 00:02:13;;;;;;;0.28;0.10;;;;;;;16.11;100.00;99654.16;7393147;19;20018;-65
2023/07/19 00:04:40;;;;;;;0.25;0.25;;;;;;;15.98;100.00;99653.19;7397806;19;20018;-65
2023/07/19 00:07:06;;;;;;;0.30;0.10;;;;;;;16.03;100.00;99655.19;7399741;19;20010;-64
2023/07/19 00:09:32;;;;;;;0.57;0.28;;;;;;;16.07;100.00;99653.63;7401635;19;20089;-64
2023/07/19 00:11:58;;;;;;;0.57;0.20;;;;;;;16.02;100.00;99650.88;7403163;19;20019;-64
2023/07/19 00:14:24;;;;;;;1.80;0.75;;;;;;;15.98;100.00;99653.97;7401804;19;20014;-64
2023/07/19 00:16:50;;;;;;;0.20;0.10;;;;;;;15.98;100.00;99653.97;7399173;19;20386;-64
2023/07/19 00:19:16;;;;;;;0.57;0.15;;;;;;;15.96;100.00;99650.88;7401491;19;20506;-64
2023/07/19 00:21:42;;;;;;;0.20;0.20;;;;;;;15.98;100.00;99642.72;7402652;19;20014;-64
2023/07/19 00:24:08;;;;;;;2.28;0.52;;;;;;;16.08;100.00;99651.59;7400900;19;20035;-64
2023/07/19 00:26:35;;;;;;;0.80;0.50;;;;;;;16.01;100.00;99641.66;7400731;19;20018;-61
2023/07/19 00:29:01;;;;;;;0.45;0.35;;;;;;;16.05;100.00;99649.84;7400664;19;20066;-61
2023/07/19 00:31:27;;;;;;;0.65;0.25;;;;;;;16.06;100.00;99643.69;7401410;19;20447;-60
2023/07/19 00:33:53;;;;;;;0.20;0.20;;;;;;;16.07;100.00;99641.66;7399198;19;20014;-61
2023/07/19 00:36:20;;;;;;;0.10;0.10;;;;;;;16.10;100.00;99635.75;7397245;19;20014;-61
2023/07/19 00:38:47;;;;;;;0.10;0.10;;;;;;;16.10;100.00;99632.94;7400860;19;20017;-61
2023/07/19 00:41:13;;;;;;;2.20;0.55;;;;;;;16.10;100.00;99646.22;7400645;19;20025;-61
2023/07/19 00:43:39;;;;;;;0.25;0.10;;;;;;;16.12;100.00;99636.00;7398809;19;20014;-62
2023/07/19 00:46:06;;;;;;;10.25;0.47;;;;;;;16.11;100.00;99640.09;7400201;19;20031;-61
2023/07/19 00:48:33;;;;;;;0.20;0.20;;;;;;;16.11;100.00;99626.06;7400023;19;20011;-61
2023/07/19 00:51:00;;;;;;;2.50;0.17;;;;;;;16.10;100.00;99632.16;7401676;19;20014;-62
2023/07/19 00:53:27;;;;;;;0.20;0.15;;;;;;;16.13;100.00;99625.53;7398757;19;20017;-62
2023/07/19 00:55:53;;;;;;;6.22;0.32;;;;;;;16.21;100.00;99627.25;7399236;19;20343;-62
2023/07/19 00:58:23;;;;;;;1.65;0.38;;;;;;;16.25;100.00;99624.16;7400165;19;20389;-61
2023/07/19 01:00:52;;;;;;;0.98;0.30;;;;;;;16.25;100.00;99627.75;7401049;19;20013;-61
2023/07/19 01:03:19;;;;;;;0.68;0.28;;;;;;;16.23;100.00;99629.53;7402362;19;20014;-61
2023/07/19 01:05:45;;;;;;;1.10;0.75;;;;;;;16.20;100.00;99622.19;7399813;19;20018;-61
2023/07/19 01:08:11;;;;;;;0.35;0.20;;;;;;;16.19;100.00;99618.59;7399550;19;20016;-61
2023/07/19 01:10:38;;;;;;;1.13;0.22;;;;;;;16.28;100.00;99621.09;7399500;19;20349;-64
2023/07/19 01:13:12;;;;;;;0.57;0.30;;;;;;;16.26;100.00;99623.66;7397819;19;20018;-64
2023/07/19 01:15:40;;;;;;;1.08;0.45;;;;;;;16.23;100.00;99621.88;7394921;19;20014;-64
2023/07/19 01:18:07;;;;;;;0.22;0.20;;;;;;;16.23;100.00;99619.06;7399669;19;20014;-64
2023/07/19 01:20:33;;;;;;;1.08;0.10;;;;;;;16.23;100.00;99618.31;7398594;19;20021;-64
2023/07/19 01:23:00;;;;;;;0.40;0.20;;;;;;;16.29;100.00;99622.59;7398224;19;20015;-64
2023/07/19 01:25:26;;;;;;;0.32;0.10;;;;;;;16.24;100.00;99619.84;7400566;19;20007;-64
2023/07/19 01:27:52;;;;;;;1.13;0.30;;;;;;;16.17;100.00;99618.34;7397085;19;20018;-64
2023/07/19 01:30:18;;;;;;;4.22;0.40;;;;;;;16.26;100.00;99620.84;7397246;19;20086;-64
2023/07/19 01:32:44;;;;;;;1.40;0.47;;;;;;;16.29;100.00;99616.22;7399057;19;20039;-64
2023/07/19 01:35:12;;;;;;;2.30;0.40;;;;;;;16.15;100.00;99620.91;7396774;19;20027;-64
2023/07/19 01:37:39;;;;;;;2.08;0.10;;;;;;;16.28;100.00;99621.09;7397174;19;20515;-64
2023/07/19 01:40:06;;;;;;;2.05;0.10;;;;;;;16.27;100.00;99616.75;7398607;19;20038;-65
2023/07/19 01:42:32;;;;;;;1.90;0.52;;;;;;;16.27;100.00;99618.78;7398719;19;20019;-64
2023/07/19 01:45:01;;;;;;;0.40;0.30;;;;;;;16.22;100.00;99617.53;7396810;19;20010;-64
2023/07/19 01:47:27;;;;;;;0.43;0.40;;;;;;;16.25;100.00;99622.13;7397291;19;20017;-64
2023/07/19 01:49:53;;;;;;;0.40;0.40;;;;;;;16.27;100.00;99618.78;7397042;19;20014;-65
2023/07/19 01:52:20;;;;;;;0.50;0.10;;;;;;;16.24;100.00;99609.34;7400697;19;20026;-64
2023/07/19 01:54:46;;;;;;;1.00;0.47;;;;;;;16.24;100.00;99617.78;7397624;19;20087;-64
2023/07/19 01:57:13;;;;;;;1.08;0.50;;;;;;;16.26;100.00;99611.66;7395349;19;20033;-63
2023/07/19 01:59:39;;;;;;;0.70;0.30;;;;;;;16.21;100.00;99610.41;7396368;19;20019;-63
2023/07/19 02:02:05;;;;;;;0.10;0.10;;;;;;;16.20;100.00;99608.88;7399588;19;20048;-63
2023/07/19 02:04:31;;;;;;;0.70;0.45;;;;;;;16.21;100.00;99601.97;7398022;19;20013;-64
2023/07/19 02:06:57;;;;;;;0.85;0.30;;;;;;;16.27;100.00;99601.94;7396890;19;20349;-63
2023/07/19 02:09:24;;;;;;;0.43;0.43;;;;;;;16.28;100.00;99595.81;7395048;19;20022;-63
2023/07/19 02:11:50;;;;;;;0.45;0.38;;;;;;;16.26;100.00;99606.81;7400400;19;20034;-64
2023/07/19 02:14:18;;;;;;;2.78;0.80;;;;;;;16.37;100.00;99584.22;7395298;19;20011;-64
2023/07/19 02:16:44;;;;;;;0.77;0.22;;;;;;;16.38;100.00;99597.00;7395430;19;20010;-64
2023/07/19 02:19:10;;;;;;;1.30;0.30;;;;;;;16.43;100.00;99599.03;7397890;19;20017;-64
2023/07/19 02:21:36;;;;;;;0.95;0.20;;;;;;;16.38;100.00;99596.22;7398248;19;20010;-64
2023/07/19 02:24:03;;;;;;;4.45;0.25;;;;;;;16.35;100.00;99592.41;7395293;19;20031;-64
2023/07/19 02:26:29;;;;;;;0.57;0.22;;;;;;;16.39;100.00;99604.16;7396601;19;20010;-64
2023/07/19 02:28:55;;;;;;;1.77;0.20;;;;;;;16.35;100.00;99589.59;7395924;19;20022;-64
2023/07/19 02:31:21;;;;;;;4.53;1.13;;;;;;;16.33;100.00;99589.38;7399029;19;20021;-64
2023/07/19 02:33:47;;;;;;;0.85;0.30;;;;;;;16.23;100.00;99593.78;7394845;19;20011;-64
2023/07/19 02:36:13;;;;;;;0.75;0.43;;;;;;;16.33;100.00;99595.00;7395718;19;20014;-64
2023/07/19 02:38:41;;;;;;;1.13;0.47;;;;;;;16.34;100.00;99596.53;7396653;19;20039;-64
2023/07/19 02:41:07;;;;;;;0.50;0.20;;;;;;;16.35;100.00;99584.00;7396612;19;20023;-64
2023/07/19 02:43:35;;;;;;;1.25;0.40;;;;;;;16.39;100.00;99589.34;7396986;19;20009;-64
2023/07/19 02:46:01;;;;;;;2.45;0.45;;;;;;;16.41;100.00;99581.91;7396755;19;20021;-64
2023/07/19 02:48:27;;;;;;;2.33;0.95;;;;;;;16.41;100.00;99579.09;7396356;19;20017;-64
2023/07/19 02:50:53;;;;;;;1.55;0.68;;;;;;;16.37;100.00;99583.47;7395851;19;20014;-64
2023/07/19 02:53:19;;;;;;;0.80;0.28;;;;;;;16.37;100.00;99572.97;7394391;19;20469;-64
2023/07/19 02:55:46;;;;;;;2.05;0.20;;;;;;;16.42;100.00;99580.63;7394998;19;20355;-63
2023/07/19 02:58:13;;;;;;;0.57;0.35;;;;;;;16.40;100.00;99574.00;7394750;19;20462;-63
2023/07/19 03:00:41;;;;;;;2.00;0.32;;;;;;;16.43;100.00;99575.75;7395493;19;20010;-63
2023/07/19 03:03:08;;;;;;;0.30;0.15;;;;;;;16.41;100.00;99576.28;7398431;19;20017;-63
2023/07/19 03:05:35;;;;;;;0.85;0.70;;;;;;;16.40;100.00;99571.94;7396352;19;20070;-64
2023/07/19 03:08:01;;;;;;;0.47;0.17;;;;;;;16.41;100.00;99579.09;7395441;19;20039;-63
2023/07/19 03:10:27;;;;;;;1.08;0.55;;;;;;;16.41;100.00;99581.91;7395850;19;20003;-63
2023/07/19 03:12:53;;;;;;;0.68;0.57;;;;;;;16.43;100.00;99587.78;7395234;19;20036;-63
2023/07/19 03:15:19;;;;;;;2.70;0.73;;;;;;;16.46;100.00;99586.72;7393962;19;20017;-63
2023/07/19 03:17:46;;;;;;;3.50;0.47;;;;;;;16.51;100.00;99583.13;7393973;19;20082;-63
2023/07/19 03:20:12;;;;;;;2.75;0.77;;;;;;;16.51;100.00;99577.53;7395837;19;20014;-63
2023/07/19 03:22:38;;;;;;;0.63;0.20;;;;;;;16.54;100.00;99576.47;7393620;19;20450;-63
2023/07/19 03:25:05;;;;;;;1.88;0.45;;;;;;;16.51;100.00;99580.34;7395352;19;20022;-64
2023/07/19 03:27:31;;;;;;;1.27;0.63;;;;;;;16.50;100.00;99587.22;7393711;19;20015;-63
2023/07/19 03:29:57;;;;;;;3.78;0.60;;;;;;;16.52;100.00;99589.53;7393933;19;20109;-63
2023/07/19 03:32:23;;;;;;;0.57;0.10;;;;;;;16.56;100.00;99590.00;7395139;19;20025;-63
2023/07/19 03:34:50;;;;;;;2.55;0.73;;;;;;;16.54;100.00;99598.22;7393009;19;20106;-63
2023/07/19 03:37:16;;;;;;;0.20;0.13;;;;;;;16.57;100.00;99591.53;7391592;19;20018;-64
2023/07/19 03:39:42;;;;;;;1.00;0.52;;;;;;;16.62;100.00;99599.91;7392006;19;20014;-63
2023/07/19 03:42:09;;;;;;;0.40;0.40;;;;;;;16.54;100.00;99598.22;7392314;19;20061;-64
2023/07/19 03:44:35;;;;;;;2.95;0.63;;;;;;;16.53;100.00;99596.66;7395755;19;20011;-64
2023/07/19 03:47:01;;;;;;;1.55;0.40;;;;;;;16.53;100.00;99605.88;7394612;19;20014;-64
2023/07/19 03:49:28;;;;;;;2.70;0.73;;;;;;;16.57;100.00;99602.75;7393175;19;20457;-63
2023/07/19 03:51:54;;;;;;;8.13;1.55;;;;;;;16.56;100.00;99598.44;7392395;19;20019;-64
2023/07/19 03:54:20;;;;;;;1.27;0.75;;;;;;;16.58;100.00;99596.63;7392752;19;20322;-64
2023/07/19 03:56:46;;;;;;;0.73;0.52;;;;;;;16.52;100.00;99607.13;7391400;19;20070;-64
2023/07/19 03:59:12;;;;;;;1.35;0.70;;;;;;;16.49;100.00;99601.78;7393056;19;20010;-64
2023/07/19 04:01:39;;;;;;;2.13;0.60;;;;;;;16.50;100.00;99606.91;7392397;19;20010;-63
2023/07/19 04:04:05;;;;;;;2.97;0.88;;;;;;;16.52;100.00;99604.34;7395867;19;20475;-63
2023/07/19 04:06:32;;;;;;;12.48;1.65;;;;;;;16.64;100.00;99602.22;7391682;19;20038;-63
2023/07/19 04:08:58;;;;;;;1.25;0.52;;;;;;;16.58;100.00;99607.88;7392870;19;20174;-63
2023/07/19 04:11:24;;;;;;;4.05;1.30;;;;;;;16.67;100.00;99612.41;7392282;19;20011;-64
2023/07/19 04:13:50;;;;;;;2.72;0.68;;;;;;;16.62;100.00;99616.03;7394043;19;20023;-63
2023/07/19 04:16:17;;;;;;;1.45;0.68;;;;;;;16.63;100.00;99612.69;7392617;19;20045;-63
2023/07/19 04:18:44;;;;;;;5.28;0.80;;;;;;;16.68;100.00;99611.88;7391923;19;20034;-64
2023/07/19 04:21:10;;;;;;;5.45;0.80;;;;;;;16.68;100.00;99614.69;7391496;19;20011;-64
2023/07/19 04:23:38;;;;;;;0.90;0.60;;;;;;;16.68;100.00;99609.06;7391805;19;20011;-64
2023/07/19 04:26:05;;;;;;;6.57;1.25;;;;;;;16.68;100.00;99603.44;7391118;19;20462;-64
2023/07/19 04:28:32;;;;;;;1.48;0.50;;;;;;;16.68;100.00;99609.06;7394088;19;20013;-64
2023/07/19 04:30:58;;;;;;;2.15;0.75;;;;;;;16.71;100.00;99607.28;7391389;19;20013;-64
2023/07/19 04:33:25;;;;;;;1.75;0.57;;;;;;;16.71;100.00;99607.28;7392176;19;20392;-64
2023/07/19 04:35:51;;;;;;;0.68;0.40;;;;;;;16.75;100.00;99606.97;7391027;19;20011;-64
2023/07/19 04:38:17;;;;;;;1.00;0.93;;;;;;;16.76;100.00;99609.28;7392328;19;20010;-64
2023/07/19 04:40:43;;;;;;;6.22;1.38;;;;;;;16.81;100.00;99607.69;7394048;19;20372;-64
2023/07/19 04:43:11;;;;;;;2.42;1.15;;;;;;;16.86;100.00;99609.69;7391298;19;20014;-64
2023/07/19 04:45:38;;;;;;;3.75;0.90;;;;;;;16.67;100.00;99607.53;7391219;19;20003;-63
2023/07/19 04:48:04;;;;;;;1.75;1.13;;;;;;;16.66;100.00;99617.28;7393624;19;20035;-63
2023/07/19 04:50:31;;;;;;;1.17;0.50;;;;;;;16.70;100.00;99610.63;7391175;19;20015;-64
2023/07/19 04:52:58;;;;;;;3.80;0.55;;;;;;;16.76;100.00;99614.13;7400963;19;20079;-63
2023/07/19 04:55:24;;;;;;;2.17;0.90;;;;;;;16.83;100.00;99613.56;7398308;19;20010;-63
2023/07/19 04:57:51;;;;;;;1.98;0.50;;;;;;;16.87;100.00;99619.66;7398515;19;20042;-64
2023/07/19 05:00:18;;;;;;;1.08;0.45;;;;;;;16.91;100.00;99617.31;7398246;19;20025;-63
2023/07/19 05:02:45;;;;;;;0.85;0.45;;;;;;;17.02;100.00;99615.16;7399292;19;20022;-63
2023/07/19 05:05:12;;;;;;;2.20;1.02;;;;;;;17.01;100.00;99618.50;7402583;19;20094;-63
2023/07/19 05:07:39;;;;;;;3.55;0.70;;;;;;;17.02;100.00;99620.78;7397848;19;20456;-63
2023/07/19 05:10:06;;;;;;;1.95;0.68;;;;;;;17.06;100.00;99615.66;7397755;19;20010;-63
2023/07/19 05:12:32;;;;;;;0.52;0.40;;;;;;;17.14;100.00;99613.00;7399045;19;20007;-63
2023/07/19 05:14:58;;;;;;;2.95;0.60;;;;;;;17.09;100.00;99619.44;7397214;19;20470;-63
2023/07/19 05:17:24;;;;;;;0.40;0.28;;;;;;;17.11;100.00;99612.00;7400564;19;20070;-63
2023/07/19 05:19:51;;;;;;;1.75;0.77;;;;;;;17.17;100.00;99626.03;7397259;19;20408;-63
2023/07/19 05:22:17;;;;;;;1.10;0.50;;;;;;;17.22;100.00;99622.38;7397443;19;20014;-64
2023/07/19 05:24:44;;;;;;;1.90;0.60;;;;;;;17.40;100.00;99627.31;7399002;19;20010;-63
2023/07/19 05:27:15;;;;;;;5.05;0.82;;;;;;;17.44;100.00;99630.59;7399696;19;20035;-63
2023/07/19 05:29:41;;;;;;;0.55;0.50;;;;;;;17.32;100.00;99632.78;7396917;19;20082;-63
2023/07/19 05:32:07;;;;;;;7.15;0.30;;;;;;;17.35;100.00;99637.34;7397936;19;20388;-63
2023/07/19 05:34:34;;;;;;;5.45;0.98;;;;;;;17.26;100.00;99642.59;7398676;19;20010;-64
2023/07/19 05:37:00;;;;;;;0.22;0.20;;;;;;;17.45;100.00;99638.53;7398588;19;20014;-66
2023/07/19 05:39:26;;;;;;;1.17;0.68;;;;;;;17.22;100.00;99634.41;7398189;19;20011;-62
2023/07/19 05:41:52;;;;;;;0.68;0.30;;;;;;;17.26;100.00;99634.16;7398518;19;20070;-62
2023/07/19 05:44:18;;;;;;;5.75;0.80;;;;;;;17.38;100.00;99635.53;7398065;19;20006;-61
2023/07/19 05:46:44;;;;;;;1.48;0.80;;;;;;;17.25;100.00;99633.38;7398437;19;20429;-61
2023/07/19 05:49:11;;;;;;;2.60;1.05;;;;;;;17.26;100.00;99634.16;7399212;19;20462;-62
2023/07/19 05:51:37;;;;;;;1.35;0.65;;;;;;;17.27;100.00;99635.66;7398079;19;20528;-62
2023/07/19 05:54:04;;;;;;;2.03;0.95;;;;;;;17.69;100.00;99632.16;7398230;19;20014;-61
2023/07/19 05:56:31;;;;;;;0.50;0.45;;;;;;;17.66;100.00;99633.22;7395118;19;20014;-61
2023/07/19 05:58:57;;;;;;;1.00;0.17;;;;;;;17.45;100.00;99641.34;7395829;19;20017;-61
2023/07/19 06:01:24;;;;;;;1.30;0.57;;;;;;;17.35;100.00;99648.63;7396861;19;20034;-61
2023/07/19 06:03:50;;;;;;;1.02;0.20;;;;;;;18.12;100.00;99641.34;7397476;19;20336;-61
2023/07/19 06:06:16;;;;;;;1.15;0.28;;;;;;;17.51;100.00;99651.81;7395345;19;20011;-62
2023/07/19 06:08:42;;;;;;;1.42;0.60;;;;;;;17.37;100.00;99654.47;7395778;19;20011;-61
2023/07/19 06:11:09;;;;;;;5.90;0.63;;;;;;;17.63;100.00;99653.97;7397075;19;20028;-62
2023/07/19 06:13:35;;;;;;;1.20;0.57;;;;;;;17.43;100.00;99654.44;7397432;19;20070;-61
2023/07/19 06:16:01;;;;;;;1.00;0.25;;;;;;;17.71;100.00;99660.56;7395853;19;20026;-61
2023/07/19 06:18:27;;;;;;;1.55;0.80;;;;;;;17.61;100.00;99662.19;7396859;19;20089;-62
2023/07/19 06:20:54;;;;;;;0.95;0.35;;;;;;;17.61;100.00;99662.19;7397904;19;20010;-62
2023/07/19 06:23:20;;;;;;;2.78;0.77;;;;;;;17.63;100.00;99653.97;7396476;19;20357;-62
2023/07/19 06:25:49;;;;;;;4.95;1.08;;;;;;;18.25;100.00;99665.25;7397002;19;20010;-62
2023/07/19 06:28:16;;;;;;;2.45;0.40;;;;;;;18.04;100.00;99674.22;7395447;19;20011;-62
2023/07/19 06:30:42;;;;;;;3.08;0.50;;;;;;;17.79;100.00;99675.56;7397450;19;20011;-62
2023/07/19 06:33:08;;;;;;;2.47;0.65;;;;;;;18.11;100.00;99670.81;7396381;19;20470;-62
2023/07/19 06:35:35;;;;;;;1.27;0.68;;;;;;;17.89;100.00;99667.50;7395816;19;20010;-62
2023/07/19 06:38:01;;;;;;;3.08;0.82;;;;;;;17.80;100.00;99671.44;7394619;19;20014;-62
2023/07/19 06:40:27;;;;;;;1.23;1.02;;;;;;;17.81;100.00;99670.16;7396133;19;20078;-62
2023/07/19 06:42:53;;;;;;;1.45;0.63;;;;;;;17.80;100.00;99677.06;7394646;19;20014;-62
2023/07/19 06:45:19;;;;;;;1.88;0.40;;;;;;;17.89;100.00;99679.53;7396171;19;20014;-62
2023/07/19 06:47:46;;;;;;;3.28;0.57;;;;;;;17.91;100.00;99682.59;7395800;19;20370;-62
2023/07/19 06:50:12;;;;;;;2.63;0.75;;;;;;;17.79;100.00;99686.06;7398696;19;20377;-62
2023/07/19 06:52:38;;;;;;;1.70;0.40;;;;;;;17.86;100.00;99686.25;7396040;19;20078;-62
2023/07/19 06:55:05;;;;;;;0.50;0.40;;;;;;;17.87;100.00;99687.75;7395748;19;20325;-62
2023/07/19 06:57:31;;;;;;;2.13;0.50;;;;;;;17.94;100.00;99687.16;7393957;19;20325;-62
2023/07/19 06:59:58;;;;;;;1.45;0.63;;;;;;;17.93;100.00;99691.25;7395895;19;20007;-62
2023/07/19 07:02:24;;;;;;;1.38;0.28;;;;;;;17.94;100.00;99687.16;7398321;19;20074;-62
2023/07/19 07:04:51;;;;;;;1.90;0.25;;;;;;;17.90;100.00;99697.22;7396024;19;20018;-62
2023/07/19 07:07:19;;;;;;;1.25;0.32;;;;;;;17.92;100.00;99701.03;7395327;19;20011;-62
2023/07/19 07:09:45;;;;;;;2.58;0.65;;;;;;;17.85;100.00;99707.25;7395450;19;20027;-61
2023/07/19 07:12:12;;;;;;;1.63;0.50;;;;;;;17.95;100.00;99711.22;7394734;19;20026;-62
2023/07/19 07:14:38;;;;;;;0.65;0.55;;;;;;;17.92;100.00;99715.13;7396979;19;20466;-60
2023/07/19 07:17:06;;;;;;;3.83;0.60;;;;;;;17.85;100.00;99707.25;7392850;19;20018;-60
2023/07/19 07:19:33;;;;;;;2.45;0.75;;;;;;;18.22;100.00;99705.78;7395147;19;20125;-60
2023/07/19 07:21:59;;;;;;;0.60;0.30;;;;;;;18.01;100.00;99714.75;7393569;19;20022;-59
2023/07/19 07:24:25;;;;;;;1.50;0.47;;;;;;;17.79;100.00;99714.22;7392845;19;20081;-60
2023/07/19 07:26:51;;;;;;;2.13;0.75;;;;;;;17.74;100.00;99712.22;7396134;19;20010;-60
2023/07/19 07:29:18;;;;;;;0.95;0.32;;;;;;;17.71;100.00;99722.53;7394623;19;20010;-60
2023/07/19 07:31:44;;;;;;;0.60;0.20;;;;;;;17.79;100.00;99715.00;7393539;19;20015;-60
2023/07/19 07:34:11;;;;;;;0.50;0.38;;;;;;;17.69;100.00;99722.28;7394775;19;20382;-60
2023/07/19 07:36:37;;;;;;;0.55;0.10;;;;;;;17.79;100.00;99720.63;7391460;19;20029;-60
2023/07/19 07:39:05;;;;;;;0.15;0.00;;;;;;;17.97;100.00;99719.94;7397796;19;20471;-60
2023/07/19 07:41:32;;;;;;;0.40;0.10;;;;;;;18.03;100.00;99720.63;7393915;19;20015;-60
2023/07/19 07:43:59;;;;;;;2.15;0.50;;;;;;;18.32;100.00;99721.03;7393424;19;20044;-60
2023/07/19 07:46:25;;;;;;;0.28;0.10;;;;;;;18.47;100.00;99727.03;7393049;19;20018;-60
2023/07/19 07:48:51;;;;;;;0.43;0.43;;;;;;;18.87;100.00;99725.94;7394876;19;20022;-60
2023/07/19 07:51:18;;;;;;;1.77;0.13;;;;;;;18.77;100.00;99738.91;7397798;19;20026;-60
2023/07/19 07:53:44;;;;;;;0.70;0.35;;;;;;;18.78;100.00;99729.91;7392886;19;20070;-59
2023/07/19 07:56:10;;;;;;;0.68;0.30;;;;;;;18.92;100.00;99731.50;7393375;19;20406;-59
2023/07/19 07:58:36;;;;;;;0.70;0.20;;;;;;;19.31;100.00;99736.53;7393186;19;20011;-59
2023/07/19 08:01:02;;;;;;;0.10;0.05;;;;;;;19.01;100.00;99740.88;7393899;19;20468;-60
2023/07/19 08:03:29;;;;;;;1.33;0.45;;;;;;;18.98;100.00;99742.69;7396234;19;20078;-59
2023/07/19 08:05:55;;;;;;;0.30;0.30;;;;;;;19.17;100.00;99743.41;7392688;19;20041;-59
2023/07/19 08:08:21;;;;;;;0.55;0.15;;;;;;;19.08;100.00;99746.63;7392389;19;20387;-60
2023/07/19 08:10:47;;;;;;;0.30;0.10;;;;;;;19.04;100.00;99751.84;7393610;19;20014;-60
2023/07/19 08:13:13;;;;;;;0.10;0.10;;;;;;;18.95;100.00;99754.31;7394478;19;20022;-59
2023/07/19 08:15:39;;;;;;;0.10;0.00;;;;;;;19.08;100.00;99752.28;7393269;19;20014;-59
2023/07/19 08:18:06;;;;;;;0.25;0.08;;;;;;;19.22;100.00;99750.28;7393696;19;20014;-59
2023/07/19 08:20:32;;;;;;;0.20;0.10;;;;;;;19.32;100.00;99754.97;7392123;19;20014;-59
2023/07/19 08:22:58;;;;;;;0.10;0.10;;;;;;;19.38;100.00;99758.50;7393348;19;20017;-59
2023/07/19 08:25:24;;;;;;;0.17;0.00;;;;;;;19.35;100.00;99753.94;7396969;19;20006;-59
2023/07/19 08:27:50;;;;;;;0.70;0.13;;;;;;;19.20;100.00;99759.28;7401264;19;20026;-59
2023/07/19 08:30:17;;;;;;;0.45;0.25;;;;;;;19.07;100.00;99759.25;7400922;19;20022;-59
2023/07/19 08:32:47;;;;;;;1.20;0.30;;;;;;;19.29;100.00;99767.38;7400875;19;20046;-58
2023/07/19 08:35:14;;;;;;;0.20;0.20;;;;;;;19.37;100.00;99764.69;7399791;19;20363;-59
2023/07/19 08:37:44;;;;;;;0.10;0.10;;;;;;;19.73;100.00;99759.47;7399687;19;20042;-59
2023/07/19 08:40:12;;;;;;;0.30;0.15;;;;;;;20.08;100.00;99761.84;7401362;19;20010;-58
2023/07/19 08:42:39;;;;;;;0.25;0.15;;;;;;;20.57;100.00;99762.97;7400480;19;20018;-58
2023/07/19 08:45:07;;;;;;;0.30;0.10;;;;;;;20.69;100.00;99764.22;7400245;19;20014;-59
2023/07/19 08:47:34;;;;;;;0.90;0.20;;;;;;;20.84;100.00;99770.06;7398975;19;20048;-59
2023/07/19 08:50:04;;;;;;;0.10;0.00;;;;;;;20.75;100.00;99776.19;7400192;19;20074;-59
2023/07/19 08:52:32;;;;;;;0.10;0.00;;;;;;;21.17;100.00;99773.47;7399202;19;20027;-59
2023/07/19 08:54:59;;;;;;;0.40;0.30;;;;;;;21.07;100.00;99771.09;7400212;19;20891;-59
2023/07/19 08:57:26;;;;;;;0.10;0.10;;;;;;;20.93;100.00;99771.66;7396812;19;20014;-59
2023/07/19 08:59:52;;;;;;;0.00;0.00;;;;;;;21.03;100.00;99776.34;7399980;19;20017;-59
2023/07/19 09:02:18;;;;;;;0.10;0.00;;;;;;;21.07;100.00;99776.03;7400214;19;20010;-59
2023/07/19 09:05:04;;;;;;;0.10;0.00;;;;;;;21.13;100.00;99779.47;7400394;19;20049;-59
2023/07/19 09:07:30;;;;;;;0.80;0.05;;;;;;;21.24;100.00;99775.63;7400021;19;20011;-59
2023/07/19 09:09:56;;;;;;;0.10;0.00;;;;;;;21.31;100.00;99772.09;7399433;19;20557;-59
2023/07/19 09:12:22;;;;;;;0.03;0.00;;;;;;;21.33;100.00;99780.81;7398941;19;20031;-59
2023/07/19 09:14:49;;;;;;;0.10;0.10;;;;;;;21.08;100.00;99778.28;7402147;19;20043;-59
2023/07/19 09:17:15;;;;;;;0.00;0.00;;;;;;;21.06;100.00;99780.16;7396989;19;20332;-59
2023/07/19 09:19:42;;;;;;;0.00;0.00;;;;;;;21.14;100.00;99787.41;7392910;19;20018;-79
2023/07/19 09:22:09;;;;;;;0.77;0.10;;;;;;;21.02;100.00;99783.31;7394560;19;20022;-79
2023/07/19 09:24:35;;;;;;;0.13;0.00;;;;;;;20.94;100.00;99787.38;7392331;19;20349;-79
2023/07/19 09:27:02;;;;;;;0.20;0.10;;;;;;;20.58;100.00;99789.94;7395306;19;20026;-79
2023/07/19 09:29:30;;;;;;;0.10;0.10;;;;;;;20.46;100.00;99791.47;7394247;19;20031;-79
2023/07/19 09:31:58;;;;;;;0.10;0.00;;;;;;;20.63;100.00;99789.06;7395001;19;20014;-79
2023/07/19 09:34:38;;;;;;;10.70;0.25;;;;;;;21.05;100.00;99793.53;7396315;19;20085;-79
2023/07/19 09:37:05;;;;;;;0.10;0.00;;;;;;;21.59;100.00;99786.34;7390773;19;20021;-79
2023/07/19 09:39:34;;;;;;;0.10;0.10;;;;;;;21.57;100.00;99794.66;7395899;19;20010;-79
2023/07/19 09:42:01;;;;;;;0.10;0.10;;;;;;;21.47;100.00;99790.75;7392057;19;20042;-79
2023/07/19 09:44:27;;;;;;;0.47;0.10;;;;;;;21.20;100.00;99795.81;7391788;19;20018;-79
2023/07/19 09:46:54;;;;;;;3.17;0.10;;;;;;;21.17;100.00;99796.88;7391813;19;20014;-79
2023/07/19 09:49:20;;;;;;;0.47;0.00;;;;;;;21.46;100.00;99794.91;7394217;19;20022;-80
2023/07/19 09:51:47;;;;;;;0.10;0.00;;;;;;;21.72;100.00;99797.59;7400139;19;20021;-79
2023/07/19 09:54:15;;;;;;;0.75;0.10;;;;;;;22.01;100.00;99796.34;7395597;19;20018;-79
2023/07/19 09:56:43;;;;;;;0.08;0.00;;;;;;;21.89;100.00;99797.97;7393912;19;20015;-79
2023/07/19 09:59:12;;;;;;;0.08;0.00;;;;;;;21.84;100.00;99801.69;7392087;19;20011;-79
2023/07/19 10:01:40;;;;;;;0.10;0.00;;;;;;;21.71;100.00;99804.59;7395017;19;20020;-79
2023/07/19 10:04:25;;;;;;;0.30;0.10;;;;;;;21.64;100.00;99797.53;7397958;19;20077;-79
2023/07/19 10:07:07;;;;;;;0.00;0.00;;;;;;;21.51;100.00;99803.28;7392754;19;20015;-79
2023/07/19 10:09:37;;;;;;;0.10;0.00;;;;;;;21.64;100.00;99799.59;7393742;19;20038;-80
2023/07/19 10:12:09;;;;;;;0.00;0.00;;;;;;;21.62;100.00;99807.91;7398477;19;20018;-80
2023/07/19 10:14:35;;;;;;;0.05;0.05;;;;;;;21.81;100.00;99802.75;7393620;19;20010;-79
2023/07/19 10:17:05;;;;;;;0.00;0.00;;;;;;;22.12;100.00;99795.28;7392588;19;20011;-79
2023/07/19 10:19:32;;;;;;;;;;;;;;;22.36;100.00;99798.47;7391916;19;20019;-79
2023/07/19 10:22:04;;;;;;;0.10;0.00;;;;;;;22.58;100.00;99795.00;7394924;19;20336;-79
2023/07/19 10:24:32;;;;;;;0.10;0.00;;;;;;;22.97;100.00;99795.94;7392475;19;20074;-79
2023/07/19 10:27:06;;;;;;;0.10;0.00;;;;;;;23.09;100.00;99811.28;7392681;19;20507;-79
2023/07/19 10:29:46;;;;;;;0.28;0.10;;;;;;;23.09;100.00;99802.78;7394964;19;20014;-79
2023/07/19 10:32:12;;;;;;;0.45;0.00;;;;;;;23.28;100.00;99820.28;7398630;19;20018;-79
2023/07/19 10:34:43;;;;;;;0.30;0.13;;;;;;;22.57;100.00;99812.56;7394272;19;20018;-79
2023/07/19 10:37:09;;;;;;;0.10;0.10;;;;;;;22.21;100.00;99817.47;7392574;19;20007;-79
2023/07/19 10:39:35;;;;;;;2.22;0.10;;;;;;;22.46;100.00;99821.41;7392404;19;20014;-79
2023/07/19 10:42:01;;;;;;;0.10;0.00;;;;;;;22.66;100.00;99822.66;7394499;19;20022;-79
2023/07/19 10:44:27;;;;;;;0.00;0.00;;;;;;;22.68;100.00;99822.88;7391825;19;20330;-79
2023/07/19 10:46:54;;;;;;;0.10;0.00;;;;;;;22.56;100.00;99828.88;7390501;19;20018;-79
2023/07/19 10:49:23;;;;;;;0.00;0.00;;;;;;;22.34;100.00;99825.88;7392459;19;20066;-80
2023/07/19 10:51:57;;;;;;;0.10;0.00;;;;;;;22.11;100.00;99825.72;7394677;19;20020;-79
2023/07/19 10:54:25;;;;;;;0.10;0.00;;;;;;;21.78;100.00;99829.41;7393571;19;20023;-79
2023/07/19 10:56:53;;;;;;;0.10;0.00;;;;;;;21.73;100.00;99835.97;7390138;19;20104;-79
2023/07/19 10:59:20;;;;;;;0.00;0.00;;;;;;;21.68;100.00;99831.97;7391847;19;20015;-79
2023/07/19 11:01:49;;;;;;;0.10;0.10;;;;;;;22.04;100.00;99834.94;7394699;19;20026;-79
2023/07/19 11:04:18;;;;;;;0.20;0.20;;;;;;;22.52;100.00;99819.91;7392099;19;20014;-79
2023/07/19 11:06:56;;;;;;;0.43;0.10;;;;;;;22.45;100.00;99826.34;7391050;19;20363;-79
2023/07/19 11:09:22;;;;;;;0.20;0.20;;;;;;;22.29;100.00;99819.03;7391359;19;20011;-79
2023/07/19 11:11:53;;;;;;;0.35;0.13;;;;;;;22.55;100.00;99824.50;7395514;19;20019;-78
2023/07/19 11:14:32;;;;;;;;;;;;;;;22.75;100.00;99819.31;7392215;19;20006;-79
2023/07/19 11:16:59;;;;;;;0.38;0.00;;;;;;;22.52;100.00;99825.59;7390476;19;19926;-79
2023/07/19 11:19:37;;;;;;;0.90;0.00;;;;;;;22.19;100.00;99825.78;7391385;19;20018;-79
2023/07/19 11:22:04;;;;;;;0.10;0.00;;;;;;;22.28;100.00;99822.44;7388527;19;20021;-79
2023/07/19 11:24:41;;;;;;;0.10;0.00;;;;;;;22.48;100.00;99830.88;7395106;19;20026;-78
2023/07/19 11:27:08;;;;;;;0.10;0.00;;;;;;;22.66;100.00;99823.44;7389763;19;20045;-79